Time;durP1;ratioP1;P1;durP2;ratioP2;P2;SDS_P1;SDS_P2;PMS_P1;PMS_P2;Temp;Humidity;BMP_temperature;BMP_pressure;BME280_temperature;BME280_humidity;BME280_pressure;Samples;Min_cycle;Max_cycle;Signal;HPM_P1;HPM_P2
2021/12/06 00:01:09;;;;;;;30.30;17.23;;;2.10;87.40;;;;;;4909436;29;20044;-76
2021/12/06 00:03:43;;;;;;;25.77;14.70;;;2.00;87.30;;;;;;4892151;29;20055;-76
2021/12/06 00:06:12;;;;;;;30.67;17.83;;;2.00;86.70;;;;;;4908561;29;20377;-77
2021/12/06 00:08:38;;;;;;;25.15;15.80;;;2.00;86.80;;;;;;4908579;29;20455;-76
2021/12/06 00:11:08;;;;;;;27.40;16.00;;;2.00;86.70;;;;;;4907385;29;20122;-76
2021/12/06 00:13:40;;;;;;;24.77;15.48;;;2.10;87.20;;;;;;4893546;29;20040;-76
2021/12/06 00:16:12;;;;;;;26.88;17.23;;;2.10;87.00;;;;;;4907257;29;20568;-77
2021/12/06 00:18:38;;;;;;;29.83;18.00;;;2.10;86.90;;;;;;4924083;29;20055;-76
2021/12/06 00:21:08;;;;;;;30.58;16.50;;;2.10;86.90;;;;;;4924014;29;20091;-76
2021/12/06 00:23:34;;;;;;;27.45;16.58;;;2.10;86.80;;;;;;4886409;29;20047;-77
2021/12/06 00:26:01;;;;;;;27.38;16.98;;;2.10;87.30;;;;;;4892399;29;20555;-76
2021/12/06 00:28:27;;;;;;;29.35;16.63;;;2.10;87.10;;;;;;4891746;29;20494;-77
2021/12/06 00:30:54;;;;;;;29.77;15.80;;;2.10;87.30;;;;;;4893442;29;20052;-76
2021/12/06 00:33:20;;;;;;;28.15;17.80;;;2.10;87.30;;;;;;4892140;29;20060;-77
2021/12/06 00:35:48;;;;;;;26.10;17.58;;;2.10;87.00;;;;;;4891162;29;20044;-77
2021/12/06 00:38:14;;;;;;;31.33;19.30;;;2.10;87.30;;;;;;4892800;29;20083;-77
2021/12/06 00:40:43;;;;;;;28.70;17.83;;;2.20;87.70;;;;;;4908130;29;20419;-76
2021/12/06 00:43:09;;;;;;;32.45;19.17;;;2.10;87.30;;;;;;4913420;29;20052;-77
2021/12/06 00:45:35;;;;;;;29.27;18.92;;;2.20;87.40;;;;;;4908161;29;20119;-76
2021/12/06 00:48:01;;;;;;;29.52;17.25;;;2.10;87.50;;;;;;4896073;29;20492;-76
2021/12/06 00:50:31;;;;;;;32.15;20.88;;;2.10;87.50;;;;;;4892346;29;20064;-77
2021/12/06 00:52:57;;;;;;;27.97;18.10;;;2.10;87.40;;;;;;4908208;29;20071;-77
2021/12/06 00:55:23;;;;;;;32.72;20.65;;;2.20;87.30;;;;;;4891741;29;20307;-77
2021/12/06 00:57:52;;;;;;;34.97;19.45;;;2.10;87.10;;;;;;4892236;29;20044;-77
2021/12/06 01:00:25;;;;;;;32.38;20.70;;;2.20;87.70;;;;;;4892461;29;20040;-77
2021/12/06 01:02:53;;;;;;;31.45;19.50;;;2.20;88.00;;;;;;4894068;29;20044;-77
2021/12/06 01:05:22;;;;;;;38.47;20.75;;;2.20;87.50;;;;;;4904706;29;20047;-77
2021/12/06 01:07:50;;;;;;;33.63;20.38;;;2.20;87.50;;;;;;4900788;29;20531;-77
2021/12/06 01:10:17;;;;;;;34.17;20.80;;;2.20;87.90;;;;;;4907538;29;20048;-77
2021/12/06 01:12:43;;;;;;;30.13;19.15;;;2.20;87.70;;;;;;4892657;29;20055;-77
2021/12/06 01:15:09;;;;;;;32.95;19.83;;;2.20;87.20;;;;;;4909332;29;20491;-76
2021/12/06 01:17:35;;;;;;;31.85;19.15;;;2.20;87.00;;;;;;4911422;29;20047;-77
2021/12/06 01:20:04;;;;;;;27.92;18.35;;;2.20;87.10;;;;;;4895711;29;20070;-77
2021/12/06 01:22:41;;;;;;;29.73;18.67;;;2.20;86.50;;;;;;4902572;29;20579;-76
2021/12/06 01:25:19;;;;;;;33.78;19.42;;;2.10;85.90;;;;;;4912638;29;20055;-76
2021/12/06 01:40:54;;;;;;;37.42;19.85;;;2.10;87.30;;;;;;4898026;29;20048;-76
2021/12/06 01:43:20;;;;;;;34.28;21.35;;;2.10;87.40;;;;;;4910690;29;20581;-77
2021/12/06 01:45:45;;;;;;;35.40;21.38;;;2.10;87.60;;;;;;4895465;29;20044;-76
2021/12/06 01:48:11;;;;;;;34.65;20.60;;;2.10;87.60;;;;;;4891845;29;20139;-77
2021/12/06 01:50:38;;;;;;;35.90;21.00;;;2.10;87.40;;;;;;4894794;29;20491;-76
2021/12/06 01:53:05;;;;;;;32.92;20.52;;;2.10;87.50;;;;;;4910704;29;20062;-76
2021/12/06 01:55:35;;;;;;;35.72;21.05;;;2.00;87.40;;;;;;4907506;29;20052;-77
2021/12/06 01:58:03;;;;;;;35.88;21.17;;;2.10;87.70;;;;;;4910121;29;20044;-77
2021/12/06 02:00:41;;;;;;;34.28;19.70;;;2.10;87.50;;;;;;4910176;29;20050;-77
2021/12/06 02:03:08;;;;;;;34.58;19.30;;;2.10;87.70;;;;;;4918545;29;20103;-76
2021/12/06 02:05:37;;;;;;;33.95;18.65;;;2.20;87.60;;;;;;4910482;29;20063;-76
2021/12/06 02:08:03;;;;;;;31.10;17.67;;;2.10;87.30;;;;;;4910085;29;20103;-76
2021/12/06 02:10:29;;;;;;;36.22;20.33;;;2.10;87.40;;;;;;4905043;29;20052;-76
2021/12/06 02:12:55;;;;;;;31.73;17.55;;;2.10;87.20;;;;;;4879951;29;20059;-76
2021/12/06 02:15:39;;;;;;;40.13;22.00;;;2.10;87.10;;;;;;4910327;29;20052;-77
2021/12/06 02:18:14;;;;;;;38.33;19.20;;;2.10;87.20;;;;;;4897724;29;20234;-77
2021/12/06 02:20:48;;;;;;;38.28;20.92;;;2.10;87.30;;;;;;4911518;29;20060;-76
2021/12/06 02:23:15;;;;;;;39.95;22.27;;;2.10;87.70;;;;;;4910037;29;20044;-77
2021/12/06 02:25:41;;;;;;;41.63;22.17;;;2.10;87.90;;;;;;4909092;29;20044;-77
2021/12/06 02:28:07;;;;;;;43.15;23.33;;;2.10;88.40;;;;;;4893423;29;20051;-77
2021/12/06 02:30:33;;;;;;;45.28;23.98;;;2.10;88.30;;;;;;4910029;29;20521;-76
2021/12/06 02:32:59;;;;;;;42.33;23.25;;;2.10;88.20;;;;;;4895426;29;20419;-77
2021/12/06 02:35:25;;;;;;;45.47;23.13;;;2.10;88.30;;;;;;4909902;29;20595;-76
2021/12/06 02:37:51;;;;;;;45.40;23.80;;;2.10;88.50;;;;;;4909697;29;20112;-77
2021/12/06 02:40:24;;;;;;;41.30;24.25;;;2.10;88.50;;;;;;4909040;29;20091;-77
2021/12/06 02:42:51;;;;;;;47.25;24.25;;;2.10;88.50;;;;;;4895607;29;20048;-77
2021/12/06 02:45:21;;;;;;;45.63;23.48;;;2.10;88.60;;;;;;4905849;29;20408;-77
2021/12/06 02:47:52;;;;;;;41.40;21.50;;;2.10;88.70;;;;;;4903616;29;20160;-76
2021/12/06 02:50:19;;;;;;;43.13;22.85;;;2.10;88.70;;;;;;4910129;29;20127;-77
2021/12/06 02:52:45;;;;;;;38.70;22.52;;;2.10;88.80;;;;;;4909542;29;20083;-77
2021/12/06 02:55:29;;;;;;;43.65;23.80;;;2.10;89.00;;;;;;4909565;29;20430;-76
2021/12/06 02:57:58;;;;;;;45.53;22.58;;;2.10;89.10;;;;;;4910149;29;20040;-77
2021/12/06 03:00:26;;;;;;;46.88;23.13;;;2.10;89.10;;;;;;4909515;29;20051;-77
2021/12/06 03:02:51;;;;;;;42.05;22.05;;;2.10;89.00;;;;;;4905412;29;20521;-77
2021/12/06 03:05:18;;;;;;;44.42;24.48;;;2.10;88.70;;;;;;4893613;29;20040;-77
2021/12/06 03:07:47;;;;;;;41.65;22.83;;;2.10;88.60;;;;;;4909427;29;20111;-77
2021/12/06 03:10:18;;;;;;;47.95;23.27;;;2.10;88.90;;;;;;4909583;29;20060;-76
2021/12/06 03:12:44;;;;;;;40.75;19.88;;;2.10;88.90;;;;;;4904565;29;20048;-76
2021/12/06 03:15:11;;;;;;;48.67;24.45;;;2.00;88.90;;;;;;4878108;29;20058;-77
2021/12/06 03:17:37;;;;;;;44.25;23.00;;;2.10;89.00;;;;;;4909813;29;20487;-76
2021/12/06 03:20:07;;;;;;;48.90;22.48;;;2.10;88.90;;;;;;4909332;29;20401;-77
2021/12/06 03:22:32;;;;;;;43.47;23.50;;;2.10;89.00;;;;;;4907521;29;20071;-77
2021/12/06 03:24:58;;;;;;;38.88;19.70;;;2.20;89.00;;;;;;4909425;29;20756;-77
2021/12/06 03:27:24;;;;;;;45.35;22.75;;;2.10;89.00;;;;;;4892967;29;20459;-77
2021/12/06 03:29:49;;;;;;;44.63;22.92;;;2.10;89.10;;;;;;4908930;29;20058;-77
2021/12/06 03:32:16;;;;;;;46.85;24.63;;;2.10;89.10;;;;;;4894024;29;20064;-76
2021/12/06 03:34:42;;;;;;;50.38;23.23;;;2.10;89.10;;;;;;4905944;29;20052;-77
2021/12/06 03:37:09;;;;;;;45.17;24.27;;;2.10;89.00;;;;;;4877162;29;20496;-77
2021/12/06 03:39:40;;;;;;;49.10;24.95;;;2.10;89.10;;;;;;4893635;29;20051;-77
2021/12/06 03:42:08;;;;;;;42.53;23.90;;;2.10;88.90;;;;;;4908867;29;20146;-77
2021/12/06 03:44:35;;;;;;;39.53;20.27;;;2.10;88.70;;;;;;4908094;29;20054;-76
2021/12/06 03:47:12;;;;;;;51.20;25.08;;;2.10;88.90;;;;;;4908995;29;20448;-77
2021/12/06 03:49:38;;;;;;;42.42;22.90;;;2.10;89.10;;;;;;4908622;29;20505;-77
2021/12/06 03:52:05;;;;;;;43.95;22.52;;;2.10;89.00;;;;;;4909487;29;20044;-76
2021/12/06 03:54:31;;;;;;;43.78;21.75;;;2.10;89.00;;;;;;4888918;29;20048;-77
2021/12/06 03:56:57;;;;;;;38.75;22.02;;;2.10;89.20;;;;;;4907410;29;20051;-77
2021/12/06 03:59:24;;;;;;;43.42;23.02;;;2.10;89.10;;;;;;4908753;29;20051;-77
2021/12/06 04:01:52;;;;;;;45.65;22.98;;;2.10;89.10;;;;;;4914226;29;20095;-77
2021/12/06 04:04:18;;;;;;;41.45;22.83;;;2.10;88.70;;;;;;4907862;29;20564;-76
2021/12/06 04:06:44;;;;;;;43.28;22.55;;;2.20;88.80;;;;;;4892513;29;20085;-77
2021/12/06 04:09:11;;;;;;;40.28;21.75;;;2.10;88.70;;;;;;4909274;29;20052;-77
2021/12/06 04:11:38;;;;;;;45.58;23.00;;;2.10;88.70;;;;;;4908104;29;20131;-77
2021/12/06 04:14:05;;;;;;;41.70;22.77;;;2.10;88.90;;;;;;4908975;29;20060;-76
2021/12/06 04:16:31;;;;;;;44.65;23.40;;;2.10;89.10;;;;;;4907512;29;20040;-76
2021/12/06 04:18:57;;;;;;;44.90;23.95;;;2.10;89.00;;;;;;4893239;29;20472;-77
2021/12/06 04:21:24;;;;;;;45.00;22.50;;;2.10;89.00;;;;;;4907582;29;20044;-76
2021/12/06 04:23:50;;;;;;;41.70;23.65;;;2.10;88.80;;;;;;4908896;29;20516;-77
2021/12/06 04:26:18;;;;;;;43.17;23.90;;;2.10;88.60;;;;;;4901382;29;20068;-77
2021/12/06 04:28:48;;;;;;;36.78;20.65;;;2.10;88.70;;;;;;4908462;29;20131;-77
2021/12/06 04:31:16;;;;;;;43.03;22.55;;;2.10;88.70;;;;;;4894553;29;20059;-77
2021/12/06 04:33:42;;;;;;;37.45;21.00;;;2.10;89.00;;;;;;4892075;29;20048;-77
2021/12/06 04:36:08;;;;;;;44.70;25.05;;;2.10;88.70;;;;;;4907195;29;20044;-77
2021/12/06 04:38:35;;;;;;;40.38;21.10;;;2.10;88.80;;;;;;4891512;29;20052;-77
2021/12/06 04:41:02;;;;;;;39.45;23.00;;;2.10;89.00;;;;;;4904469;29;20590;-77
2021/12/06 04:43:28;;;;;;;43.13;24.08;;;2.10;89.10;;;;;;4908282;29;20040;-77
2021/12/06 04:45:54;;;;;;;44.45;23.42;;;2.10;89.10;;;;;;4907731;29;20048;-77
2021/12/06 04:48:21;;;;;;;45.17;22.60;;;2.10;89.10;;;;;;4889725;29;20044;-77
2021/12/06 04:50:47;;;;;;;44.08;24.02;;;2.10;89.10;;;;;;4910502;29;20059;-77
2021/12/06 04:53:16;;;;;;;43.28;23.40;;;2.10;89.10;;;;;;4911968;29;20076;-77
2021/12/06 04:55:56;;;;;;;43.03;24.48;;;2.10;89.00;;;;;;4896227;29;20124;-77
2021/12/06 04:58:27;;;;;;;42.80;23.02;;;2.10;88.90;;;;;;4909508;29;20055;-77
2021/12/06 05:01:15;;;;;;;45.47;24.52;;;2.10;89.10;;;;;;4908560;29;20048;-77
2021/12/06 05:03:41;;;;;;;42.60;24.00;;;2.10;89.10;;;;;;4928819;29;20605;-77
2021/12/06 05:06:13;;;;;;;40.25;23.80;;;2.10;89.20;;;;;;4896344;29;20044;-77
2021/12/06 05:08:43;;;;;;;38.63;21.45;;;2.10;89.30;;;;;;4898608;29;20070;-77
2021/12/06 05:11:09;;;;;;;;;;;2.10;89.10;;;;;;4896322;29;20044;-76
2021/12/06 05:13:42;;;;;;;40.97;22.95;;;2.10;89.30;;;;;;4895601;29;19930;-77
2021/12/06 05:16:08;;;;;;;42.65;24.52;;;2.20;89.20;;;;;;4907024;29;20055;-77
2021/12/06 05:18:34;;;;;;;47.38;23.02;;;2.10;89.20;;;;;;4880148;29;20056;-77
2021/12/06 05:21:01;;;;;;;41.38;23.67;;;2.10;88.90;;;;;;4911052;29;20075;-77
2021/12/06 05:23:27;;;;;;;40.95;23.48;;;2.10;88.80;;;;;;4905273;29;20153;-77
2021/12/06 05:25:53;;;;;;;41.13;22.45;;;2.10;89.10;;;;;;4911071;29;20162;-77
2021/12/06 05:28:22;;;;;;;36.67;19.55;;;2.20;89.30;;;;;;4905736;29;20048;-77
2021/12/06 05:30:53;;;;;;;51.53;24.80;;;2.20;89.30;;;;;;4904812;29;20459;-77
2021/12/06 05:33:28;;;;;;;43.55;22.95;;;2.10;88.70;;;;;;4895509;29;20396;-77
2021/12/06 05:36:00;;;;;;;43.53;23.27;;;2.10;89.10;;;;;;4913217;29;20517;-77
2021/12/06 05:38:29;;;;;;;42.45;23.85;;;2.10;89.00;;;;;;4909081;29;20048;-77
2021/12/06 05:40:56;;;;;;;42.67;24.35;;;2.10;88.90;;;;;;4903675;29;20498;-77
2021/12/06 05:43:22;;;;;;;37.08;21.63;;;2.10;89.00;;;;;;4895632;29;20054;-77
2021/12/06 05:45:49;;;;;;;42.83;23.02;;;2.10;88.80;;;;;;4910523;29;20044;-76
2021/12/06 05:48:15;;;;;;;40.97;21.80;;;2.10;88.90;;;;;;4911029;29;20052;-77
2021/12/06 05:50:41;;;;;;;46.08;24.65;;;2.10;88.70;;;;;;4904151;29;20052;-77
2021/12/06 05:53:07;;;;;;;44.22;24.90;;;2.10;89.60;;;;;;4911280;29;20055;-76
2021/12/06 05:55:33;;;;;;;43.58;24.27;;;2.10;88.40;;;;;;4910111;29;20048;-77
2021/12/06 05:58:02;;;;;;;45.67;23.60;;;2.10;88.60;;;;;;4911017;29;20062;-77
2021/12/06 06:00:31;;;;;;;42.42;24.75;;;2.10;88.70;;;;;;4907602;29;20055;-77
2021/12/06 06:02:58;;;;;;;46.63;24.77;;;2.10;88.70;;;;;;4900639;29;20051;-77
2021/12/06 06:05:24;;;;;;;40.90;23.48;;;2.10;88.90;;;;;;4891523;29;20083;-77
2021/12/06 06:07:50;;;;;;;40.55;22.73;;;2.10;88.80;;;;;;4910106;29;20491;-77
2021/12/06 06:10:16;;;;;;;42.42;21.30;;;2.10;88.60;;;;;;4894216;29;20047;-76
2021/12/06 06:12:43;;;;;;;42.88;22.38;;;2.10;88.60;;;;;;4907736;29;20067;-76
2021/12/06 06:15:09;;;;;;;38.88;22.85;;;2.10;88.70;;;;;;4910879;29;20127;-77
2021/12/06 06:17:41;;;;;;;43.80;22.42;;;2.10;88.60;;;;;;4910103;29;20055;-76
2021/12/06 06:20:15;;;;;;;51.25;24.75;;;2.10;88.80;;;;;;4895844;29;20063;-77
2021/12/06 06:22:41;;;;;;;38.13;17.77;;;2.10;88.80;;;;;;4909535;29;20040;-77
2021/12/06 06:25:08;;;;;;;56.78;25.60;;;2.10;89.00;;;;;;4895035;29;20055;-76
2021/12/06 06:27:33;;;;;;;52.15;24.77;;;2.10;88.80;;;;;;4909890;29;20131;-77
2021/12/06 06:29:59;;;;;;;43.80;21.98;;;2.10;88.80;;;;;;4909325;29;20077;-77
2021/12/06 06:32:25;;;;;;;42.38;24.35;;;2.10;89.00;;;;;;4899281;29;20049;-77
2021/12/06 06:34:51;;;;;;;45.90;23.52;;;2.00;88.80;;;;;;4907840;29;20052;-77
2021/12/06 06:37:17;;;;;;;53.30;26.23;;;2.10;89.00;;;;;;4910417;29;20044;-77
2021/12/06 06:39:43;;;;;;;53.13;26.33;;;2.10;89.10;;;;;;4909424;29;20052;-77
2021/12/06 06:42:09;;;;;;;49.75;24.58;;;2.00;89.20;;;;;;4887703;29;20052;-77
2021/12/06 06:44:34;;;;;;;40.05;18.73;;;2.00;89.20;;;;;;4893754;29;20040;-76
2021/12/06 06:47:00;;;;;;;49.80;25.77;;;2.00;89.20;;;;;;4909805;29;20055;-76
2021/12/06 06:49:30;;;;;;;47.63;25.42;;;2.00;89.20;;;;;;4926711;29;20094;-76
2021/12/06 06:51:57;;;;;;;51.80;27.08;;;2.10;88.90;;;;;;4906209;29;20537;-77
2021/12/06 06:54:23;;;;;;;46.35;23.42;;;2.10;89.10;;;;;;4882683;29;20052;-77
2021/12/06 06:56:49;;;;;;;42.33;21.95;;;2.00;89.10;;;;;;4892955;29;20055;-76
2021/12/06 06:59:15;;;;;;;51.58;26.30;;;2.00;89.20;;;;;;4877869;29;20447;-77
2021/12/06 07:01:41;;;;;;;49.83;25.35;;;2.00;89.20;;;;;;4892470;29;20161;-77
2021/12/06 07:04:07;;;;;;;63.95;26.05;;;2.00;89.30;;;;;;4893520;29;20040;-77
2021/12/06 07:06:33;;;;;;;45.60;20.50;;;2.00;89.40;;;;;;4910034;29;20413;-76
2021/12/06 07:09:00;;;;;;;49.92;26.00;;;2.00;89.40;;;;;;4892902;29;20067;-76
2021/12/06 07:11:28;;;;;;;52.28;24.95;;;2.00;89.40;;;;;;4909509;29;20040;-77
2021/12/06 07:13:55;;;;;;;47.33;23.98;;;2.00;89.50;;;;;;4907920;29;20055;-76
2021/12/06 07:16:21;;;;;;;50.55;23.88;;;2.00;89.60;;;;;;4924292;29;20052;-76
2021/12/06 07:18:47;;;;;;;57.45;25.92;;;2.10;89.60;;;;;;4919654;29;20491;-76
2021/12/06 07:21:13;;;;;;;53.20;26.38;;;2.00;89.60;;;;;;4874350;29;20055;-77
2021/12/06 07:23:40;;;;;;;46.42;24.58;;;2.00;89.70;;;;;;4889918;29;20055;-77
2021/12/06 07:26:08;;;;;;;49.08;24.67;;;2.10;89.80;;;;;;4892775;29;20060;-77
2021/12/06 07:28:35;;;;;;;58.08;28.13;;;2.00;89.90;;;;;;4893573;29;20048;-77
2021/12/06 07:31:04;;;;;;;47.88;22.92;;;2.00;89.70;;;;;;4893672;29;20471;-77
2021/12/06 07:33:30;;;;;;;46.40;21.83;;;2.00;89.70;;;;;;4923673;29;20055;-77
2021/12/06 07:35:55;;;;;;;54.78;25.15;;;2.10;89.80;;;;;;4881550;29;20049;-77
2021/12/06 07:38:24;;;;;;;47.63;21.52;;;2.10;90.00;;;;;;4892620;29;20044;-77
2021/12/06 07:40:50;;;;;;;45.92;21.33;;;2.10;90.00;;;;;;4862339;29;20572;-77
2021/12/06 07:43:18;;;;;;;35.63;17.23;;;2.10;90.00;;;;;;4890457;29;20052;-76
2021/12/06 07:45:44;;;;;;;44.65;22.25;;;2.10;89.80;;;;;;4890163;29;20063;-77
2021/12/06 07:48:10;;;;;;;52.20;25.35;;;2.10;90.00;;;;;;4908985;29;20052;-77
2021/12/06 07:50:36;;;;;;;38.47;18.50;;;2.10;90.00;;;;;;4908446;29;20037;-77
2021/12/06 07:53:02;;;;;;;41.05;19.08;;;2.10;90.00;;;;;;4908609;29;20067;-76
2021/12/06 07:55:31;;;;;;;57.35;26.80;;;2.10;90.00;;;;;;4892482;29;20044;-74
2021/12/06 07:57:59;;;;;;;42.28;22.17;;;2.10;90.00;;;;;;4908617;29;20044;-77
2021/12/06 08:00:26;;;;;;;43.40;19.17;;;2.10;90.00;;;;;;4892566;29;20048;-77
2021/12/06 08:02:52;;;;;;;57.33;26.77;;;2.10;89.80;;;;;;4912602;29;20405;-78
2021/12/06 08:05:31;;;;;;;58.90;24.15;;;2.10;89.70;;;;;;4907179;29;20048;-77
2021/12/06 08:08:04;;;;;;;39.80;20.73;;;2.10;89.90;;;;;;4875793;29;20044;-77
2021/12/06 08:10:32;;;;;;;45.28;19.90;;;2.10;90.00;;;;;;4892692;29;20044;-77
2021/12/06 08:12:58;;;;;;;48.42;21.85;;;2.10;89.50;;;;;;4908020;29;20036;-77
2021/12/06 08:15:23;;;;;;;46.95;23.45;;;2.10;89.30;;;;;;4892521;29;20048;-78
2021/12/06 08:17:49;;;;;;;48.35;23.13;;;2.10;89.50;;;;;;4891348;29;20040;-77
2021/12/06 08:20:16;;;;;;;53.22;23.50;;;2.10;89.70;;;;;;4892770;29;20052;-77
2021/12/06 08:22:42;;;;;;;44.78;21.15;;;2.10;89.80;;;;;;4907834;29;20044;-77
2021/12/06 08:25:10;;;;;;;53.65;23.30;;;2.10;89.80;;;;;;4910861;29;20555;-77
2021/12/06 08:27:38;;;;;;;55.38;24.98;;;2.10;89.90;;;;;;4911496;29;20047;-77
2021/12/06 08:30:06;;;;;;;49.30;22.55;;;2.10;90.00;;;;;;4895097;29;20044;-77
2021/12/06 08:32:33;;;;;;;48.50;22.42;;;2.10;90.40;;;;;;4913022;29;20044;-77
2021/12/06 08:34:59;;;;;;;51.33;22.92;;;2.20;90.20;;;;;;4909222;29;20109;-78
2021/12/06 08:37:26;;;;;;;45.92;18.70;;;2.10;90.10;;;;;;4895349;29;20044;-77
2021/12/06 08:39:53;;;;;;;48.40;21.20;;;2.20;90.20;;;;;;4895047;29;20055;-77
2021/12/06 08:42:19;;;;;;;58.35;27.35;;;2.10;90.10;;;;;;4896355;29;20384;-77
2021/12/06 08:44:45;;;;;;;51.65;20.85;;;2.10;90.10;;;;;;4923068;29;20048;-76
2021/12/06 08:47:11;;;;;;;44.67;20.75;;;2.10;90.20;;;;;;4912111;29;20043;-77
2021/12/06 08:49:36;;;;;;;63.25;28.48;;;2.10;90.20;;;;;;4891921;29;20044;-78
2021/12/06 08:52:03;;;;;;;58.83;24.50;;;2.10;90.30;;;;;;4922774;29;20044;-77
2021/12/06 08:54:29;;;;;;;67.15;26.63;;;2.20;90.30;;;;;;4896080;29;20108;-78
2021/12/06 08:56:59;;;;;;;59.63;25.52;;;2.20;90.30;;;;;;4910812;29;20087;-77
2021/12/06 08:59:26;;;;;;;56.63;24.52;;;2.20;90.30;;;;;;4911020;29;20119;-77
2021/12/06 09:01:56;;;;;;;66.47;30.25;;;2.20;90.30;;;;;;4911681;29;20136;-78
2021/12/06 09:04:23;;;;;;;66.20;27.00;;;2.20;90.30;;;;;;4911685;29;20570;-78
2021/12/06 09:06:52;;;;;;;61.15;26.92;;;2.30;90.40;;;;;;4911468;29;20043;-78
2021/12/06 09:09:21;;;;;;;52.50;22.75;;;2.30;90.50;;;;;;4911075;29;20092;-77
2021/12/06 09:11:48;;;;;;;44.47;20.88;;;2.30;90.30;;;;;;4896475;29;20094;-77
2021/12/06 09:14:16;;;;;;;34.13;16.83;;;2.20;90.20;;;;;;4910968;29;20427;-77
2021/12/06 09:16:42;;;;;;;57.33;26.63;;;2.20;90.20;;;;;;4911264;29;20100;-76
2021/12/06 09:19:10;;;;;;;42.47;20.05;;;2.20;90.40;;;;;;4910084;29;20056;-77
2021/12/06 09:21:37;;;;;;;47.30;22.75;;;2.20;90.50;;;;;;4910367;29;20037;-78
2021/12/06 09:24:06;;;;;;;53.70;25.08;;;2.20;90.50;;;;;;4910336;29;20120;-78
2021/12/06 09:26:31;;;;;;;46.85;22.95;;;2.30;90.60;;;;;;4896117;29;20565;-77
2021/12/06 09:28:57;;;;;;;40.38;18.08;;;2.30;90.60;;;;;;4904225;29;20044;-77
2021/12/06 09:31:23;;;;;;;53.70;23.42;;;2.30;90.50;;;;;;4908863;29;20082;-77
2021/12/06 09:33:49;;;;;;;46.10;22.02;;;2.30;90.50;;;;;;4907393;29;20045;-77
2021/12/06 09:36:15;;;;;;;44.67;20.67;;;2.30;90.40;;;;;;4908786;29;20036;-77
2021/12/06 09:38:44;;;;;;;43.60;20.63;;;2.40;90.30;;;;;;4907419;29;20039;-77
2021/12/06 09:41:17;;;;;;;37.63;18.38;;;2.40;90.50;;;;;;4909932;29;20048;-77
2021/12/06 09:43:43;;;;;;;45.90;22.38;;;2.40;90.30;;;;;;4895709;29;20127;-77
2021/12/06 09:46:12;;;;;;;44.45;21.40;;;2.40;90.40;;;;;;4907366;29;20135;-78
2021/12/06 09:48:40;;;;;;;49.55;22.90;;;2.40;90.30;;;;;;4919783;29;20092;-77
2021/12/06 09:51:13;;;;;;;43.25;20.63;;;2.40;90.30;;;;;;4904251;29;20049;-77
2021/12/06 09:53:41;;;;;;;45.65;22.17;;;2.50;90.40;;;;;;4910354;29;20173;-77
2021/12/06 09:56:12;;;;;;;42.00;19.70;;;2.50;90.40;;;;;;4911799;29;20052;-77
2021/12/06 09:58:38;;;;;;;;;;;2.50;90.20;;;;;;4913503;29;20039;-77
2021/12/06 10:01:15;;;;;;;39.30;17.00;;;2.50;90.10;;;;;;4908822;29;20025;-76
2021/12/06 10:03:46;;;;;;;37.85;19.95;;;2.50;90.20;;;;;;4912015;29;20066;-77
2021/12/06 10:06:12;;;;;;;41.08;18.63;;;2.50;90.20;;;;;;4894945;29;20119;-77
2021/12/06 10:08:44;;;;;;;43.85;19.77;;;2.50;90.30;;;;;;4911343;29;20054;-77
2021/12/06 10:11:11;;;;;;;47.88;21.23;;;2.50;90.20;;;;;;4908085;29;20107;-78
2021/12/06 10:13:39;;;;;;;51.88;22.50;;;2.50;90.20;;;;;;4925795;29;20048;-78
2021/12/06 10:16:05;;;;;;;51.67;22.30;;;2.60;90.30;;;;;;4891288;29;20048;-78
2021/12/06 10:18:31;;;;;;;46.38;20.85;;;2.60;90.30;;;;;;4894108;29;20095;-78
2021/12/06 10:20:57;;;;;;;51.42;20.85;;;2.60;90.10;;;;;;4894780;29;20070;-77
2021/12/06 10:23:23;;;;;;;49.78;22.08;;;2.60;90.10;;;;;;4910021;29;20040;-77
2021/12/06 10:25:52;;;;;;;41.42;20.67;;;2.60;90.20;;;;;;4904515;29;20443;-77
2021/12/06 10:28:19;;;;;;;46.78;21.50;;;2.60;90.30;;;;;;4910680;29;20134;-77
2021/12/06 10:30:51;;;;;;;56.53;23.20;;;2.60;90.30;;;;;;4904006;29;20055;-78
2021/12/06 10:33:22;;;;;;;49.10;23.40;;;2.60;90.30;;;;;;4894541;29;20052;-77
2021/12/06 10:35:50;;;;;;;;;;;2.70;90.40;;;;;;4925613;29;20467;-78
2021/12/06 10:38:22;;;;;;;34.38;18.08;;;2.70;90.20;;;;;;4925610;29;19985;-77
2021/12/06 10:40:49;;;;;;;19.42;7.85;;;2.70;89.80;;;;;;4909161;29;20052;-78
2021/12/06 10:43:15;;;;;;;40.83;17.25;;;2.70;89.30;;;;;;4904328;29;20127;-78
2021/12/06 10:45:47;;;;;;;35.90;18.13;;;2.70;88.90;;;;;;4904930;29;20092;-79
2021/12/06 10:48:18;;;;;;;41.45;21.00;;;2.70;89.30;;;;;;4910627;29;20163;-78
2021/12/06 10:50:54;;;;;;;35.45;15.50;;;2.80;89.60;;;;;;4896648;29;20044;-78
2021/12/06 10:53:35;;;;;;;21.55;10.27;;;2.80;88.90;;;;;;4926778;29;20451;-79
2021/12/06 10:56:02;;;;;;;22.40;11.45;;;2.80;89.00;;;;;;4926838;29;20384;-79
2021/12/06 10:58:30;;;;;;;32.85;16.83;;;2.80;89.10;;;;;;4908865;29;20044;-79
2021/12/06 11:01:07;;;;;;;45.08;20.40;;;2.80;88.60;;;;;;4908829;29;20561;-80
2021/12/06 11:03:40;;;;;;;41.03;20.83;;;2.90;88.70;;;;;;4907253;29;20044;-80
2021/12/06 11:06:10;;;;;;;35.75;18.45;;;2.90;88.70;;;;;;4907265;29;20059;-80
2021/12/06 11:08:38;;;;;;;32.38;16.05;;;2.90;88.30;;;;;;4925536;29;20130;-79
2021/12/06 11:11:10;;;;;;;40.35;19.35;;;2.90;87.90;;;;;;4902761;29;20132;-80
2021/12/06 11:13:39;;;;;;;39.70;20.25;;;2.90;87.30;;;;;;4905603;29;20056;-80
2021/12/06 11:16:20;;;;;;;42.70;19.73;;;2.90;87.60;;;;;;4908107;29;20063;-80
2021/12/06 11:18:53;;;;;;;40.42;20.15;;;2.90;87.90;;;;;;4908638;29;20036;-80
2021/12/06 11:21:34;;;;;;;38.97;20.75;;;2.90;87.60;;;;;;4921569;29;20143;-80
2021/12/06 11:24:25;;;;;;;17.65;9.30;;;2.90;87.60;;;;;;4891831;29;20055;-79
2021/12/06 11:27:05;;;;;;;40.90;19.23;;;2.90;87.40;;;;;;4890613;29;20056;-80
2021/12/06 11:29:46;;;;;;;53.23;22.97;;;2.90;87.60;;;;;;4892923;29;20051;-80
2021/12/06 11:32:16;;;;;;;33.78;17.17;;;2.90;87.90;;;;;;4924213;29;20064;-80
2021/12/06 11:34:55;;;;;;;30.42;15.23;;;3.00;87.30;;;;;;4923406;29;20067;-80
2021/12/06 11:37:29;;;;;;;31.40;15.38;;;2.90;86.60;;;;;;4905574;29;20052;-79
2021/12/06 11:40:13;;;;;;;34.25;17.58;;;2.90;86.40;;;;;;4907720;29;20055;-80
2021/12/06 11:42:53;;;;;;;32.60;18.10;;;2.80;86.40;;;;;;4908628;29;20129;-80
2021/12/06 11:45:39;;;;;;;40.03;19.97;;;2.80;87.20;;;;;;4891613;29;20067;-80
2021/12/06 11:48:35;;;;;;;35.88;18.38;;;2.80;87.50;;;;;;4891617;29;20055;-79
2021/12/06 11:51:11;;;;;;;41.90;18.52;;;2.80;87.20;;;;;;4892019;29;20056;-79
2021/12/06 11:53:41;;;;;;;37.10;17.75;;;2.80;87.30;;;;;;4907322;29;20624;-80
2021/12/06 11:56:17;;;;;;;29.07;15.87;;;2.70;86.60;;;;;;4906457;29;20327;-80
2021/12/06 11:58:51;;;;;;;33.50;17.80;;;2.70;86.90;;;;;;4923900;29;20375;-80
2021/12/06 12:01:17;;;;;;;38.17;18.45;;;2.60;87.10;;;;;;4911533;29;20132;-80
2021/12/06 12:03:47;;;;;;;38.25;18.52;;;2.70;87.80;;;;;;4911116;29;20047;-80
2021/12/06 12:06:33;;;;;;;36.50;16.27;;;2.70;87.60;;;;;;4907780;29;20052;-80
2021/12/06 12:09:15;;;;;;;41.97;17.90;;;2.70;87.50;;;;;;4921678;29;20083;-80
2021/12/06 12:11:59;;;;;;;34.63;17.23;;;2.60;87.20;;;;;;4908564;29;20059;-80
2021/12/06 12:14:33;;;;;;;34.47;17.90;;;2.70;87.30;;;;;;4908612;29;20087;-80
2021/12/06 12:17:02;;;;;;;28.13;13.93;;;2.70;87.40;;;;;;4901623;29;20554;-79
2021/12/06 12:19:29;;;;;;;34.58;19.40;;;2.70;87.70;;;;;;4908051;29;20139;-80
2021/12/06 12:21:54;;;;;;;38.35;17.02;;;2.70;87.40;;;;;;4908890;29;20051;-80
2021/12/06 12:24:21;;;;;;;41.08;20.35;;;2.70;87.30;;;;;;4909105;29;20352;-81
2021/12/06 12:27:09;;;;;;;38.58;18.77;;;2.80;87.40;;;;;;4893144;29;20372;-80
2021/12/06 12:29:35;;;;;;;15.88;7.78;;;2.80;87.10;;;;;;4911331;29;20048;-80
2021/12/06 12:32:05;;;;;;;35.25;18.25;;;2.80;86.40;;;;;;4893221;29;20044;-81
2021/12/06 12:34:36;;;;;;;40.60;18.92;;;2.80;86.60;;;;;;4892656;29;20048;-80
2021/12/06 12:37:04;;;;;;;42.22;20.48;;;2.80;86.80;;;;;;4889258;29;20058;-80
2021/12/06 12:39:30;;;;;;;39.10;18.92;;;2.80;86.80;;;;;;4884655;29;20052;-80
2021/12/06 12:41:59;;;;;;;34.97;15.73;;;2.80;86.60;;;;;;4895978;29;20071;-80
2021/12/06 12:44:41;;;;;;;28.13;14.00;;;2.80;86.40;;;;;;4902347;29;20045;-79
2021/12/06 12:47:25;;;;;;;33.05;16.92;;;2.80;86.10;;;;;;4905983;29;20111;-80
2021/12/06 12:50:07;;;;;;;35.38;15.65;;;2.80;86.50;;;;;;4917432;29;20079;-80
2021/12/06 12:52:49;;;;;;;33.17;15.88;;;2.80;85.80;;;;;;4890096;29;20048;-80
2021/12/06 12:55:34;;;;;;;28.35;14.10;;;2.90;85.30;;;;;;4904695;29;20048;-80
2021/12/06 12:58:08;;;;;;;31.02;12.88;;;2.90;85.10;;;;;;4906254;29;20151;-80
2021/12/06 13:00:42;;;;;;;32.88;15.93;;;2.90;85.10;;;;;;4906895;29;20143;-80